sensor_id;sensor_type;location;lat;lon;timestamp;P1;durP1;ratioP1;P2;durP2;ratioP2
21095;SDS011;10706;49.036;12.112;2023-05-10T00:00:20;8.38;;;2.90;;
21095;SDS011;10706;49.036;12.112;2023-05-10T00:02:47;7.50;;;3.10;;
21095;SDS011;10706;49.036;12.112;2023-05-10T00:05:13;7.40;;;2.92;;
21095;SDS011;10706;49.036;12.112;2023-05-10T00:07:39;7.47;;;3.40;;
21095;SDS011;10706;49.036;12.112;2023-05-10T00:10:05;8.70;;;3.13;;
21095;SDS011;10706;49.036;12.112;2023-05-10T00:12:31;10.55;;;3.28;;
21095;SDS011;10706;49.036;12.112;2023-05-10T00:14:57;6.45;;;3.33;;
21095;SDS011;10706;49.036;12.112;2023-05-10T00:17:22;8.15;;;2.90;;
21095;SDS011;10706;49.036;12.112;2023-05-10T00:19:48;6.00;;;2.92;;
21095;SDS011;10706;49.036;12.112;2023-05-10T00:22:14;7.72;;;3.13;;
21095;SDS011;10706;49.036;12.112;2023-05-10T00:24:39;5.53;;;3.00;;
21095;SDS011;10706;49.036;12.112;2023-05-10T00:27:05;5.25;;;3.03;;
21095;SDS011;10706;49.036;12.112;2023-05-10T00:29:31;5.75;;;2.63;;
21095;SDS011;10706;49.036;12.112;2023-05-10T00:31:59;10.30;;;3.30;;
21095;SDS011;10706;49.036;12.112;2023-05-10T00:34:24;8.63;;;3.17;;
21095;SDS011;10706;49.036;12.112;2023-05-10T00:36:50;8.77;;;3.28;;
21095;SDS011;10706;49.036;12.112;2023-05-10T00:39:16;11.60;;;3.30;;
21095;SDS011;10706;49.036;12.112;2023-05-10T00:41:41;6.70;;;2.83;;
21095;SDS011;10706;49.036;12.112;2023-05-10T00:44:07;9.40;;;2.92;;
21095;SDS011;10706;49.036;12.112;2023-05-10T00:46:33;7.07;;;3.03;;
21095;SDS011;10706;49.036;12.112;2023-05-10T00:48:59;7.13;;;3.03;;
21095;SDS011;10706;49.036;12.112;2023-05-10T00:51:25;9.60;;;3.17;;
21095;SDS011;10706;49.036;12.112;2023-05-10T00:53:51;9.18;;;3.35;;
21095;SDS011;10706;49.036;12.112;2023-05-10T00:56:17;8.00;;;3.60;;
21095;SDS011;10706;49.036;12.112;2023-05-10T00:58:43;8.30;;;3.58;;
21095;SDS011;10706;49.036;12.112;2023-05-10T01:01:09;7.05;;;3.30;;
21095;SDS011;10706;49.036;12.112;2023-05-10T01:03:35;6.40;;;2.92;;
21095;SDS011;10706;49.036;12.112;2023-05-10T01:06:02;6.13;;;3.05;;
21095;SDS011;10706;49.036;12.112;2023-05-10T01:08:28;6.97;;;3.00;;
21095;SDS011;10706;49.036;12.112;2023-05-10T01:10:54;9.60;;;3.35;;
21095;SDS011;10706;49.036;12.112;2023-05-10T01:16:04;8.98;;;3.35;;
21095;SDS011;10706;49.036;12.112;2023-05-10T01:18:33;9.35;;;3.72;;
21095;SDS011;10706;49.036;12.112;2023-05-10T01:24:09;8.75;;;3.78;;
21095;SDS011;10706;49.036;12.112;2023-05-10T01:27:17;11.23;;;3.40;;
21095;SDS011;10706;49.036;12.112;2023-05-10T01:33:18;8.43;;;3.45;;
21095;SDS011;10706;49.036;12.112;2023-05-10T01:35:53;6.35;;;3.28;;
21095;SDS011;10706;49.036;12.112;2023-05-10T01:41:18;7.57;;;3.33;;
21095;SDS011;10706;49.036;12.112;2023-05-10T01:44:34;8.95;;;3.50;;
21095;SDS011;10706;49.036;12.112;2023-05-10T01:47:29;9.88;;;3.83;;
21095;SDS011;10706;49.036;12.112;2023-05-10T01:50:03;10.80;;;3.70;;
21095;SDS011;10706;49.036;12.112;2023-05-10T01:52:38;7.45;;;3.47;;
21095;SDS011;10706;49.036;12.112;2023-05-10T01:55:16;12.00;;;3.50;;
21095;SDS011;10706;49.036;12.112;2023-05-10T01:57:45;10.05;;;3.60;;
21095;SDS011;10706;49.036;12.112;2023-05-10T02:00:13;10.00;;;3.97;;
21095;SDS011;10706;49.036;12.112;2023-05-10T02:02:42;10.68;;;3.80;;
21095;SDS011;10706;49.036;12.112;2023-05-10T02:05:12;7.72;;;3.35;;
21095;SDS011;10706;49.036;12.112;2023-05-10T02:07:41;8.55;;;3.60;;
21095;SDS011;10706;49.036;12.112;2023-05-10T02:10:09;9.52;;;3.60;;
21095;SDS011;10706;49.036;12.112;2023-05-10T02:12:36;8.55;;;3.40;;
21095;SDS011;10706;49.036;12.112;2023-05-10T02:15:07;8.98;;;3.55;;
21095;SDS011;10706;49.036;12.112;2023-05-10T02:17:34;7.82;;;3.53;;
21095;SDS011;10706;49.036;12.112;2023-05-10T02:20:03;10.00;;;4.15;;
21095;SDS011;10706;49.036;12.112;2023-05-10T02:22:31;11.93;;;4.97;;
21095;SDS011;10706;49.036;12.112;2023-05-10T02:24:59;12.05;;;3.65;;
21095;SDS011;10706;49.036;12.112;2023-05-10T02:27:27;11.85;;;4.32;;
21095;SDS011;10706;49.036;12.112;2023-05-10T02:29:55;11.13;;;3.42;;
21095;SDS011;10706;49.036;12.112;2023-05-10T02:32:22;10.80;;;4.22;;
21095;SDS011;10706;49.036;12.112;2023-05-10T02:34:51;8.43;;;3.85;;
21095;SDS011;10706;49.036;12.112;2023-05-10T02:37:19;10.05;;;3.90;;
21095;SDS011;10706;49.036;12.112;2023-05-10T02:39:49;11.32;;;4.47;;
21095;SDS011;10706;49.036;12.112;2023-05-10T02:42:18;13.77;;;4.57;;
21095;SDS011;10706;49.036;12.112;2023-05-10T02:44:48;9.13;;;4.13;;
21095;SDS011;10706;49.036;12.112;2023-05-10T02:47:18;8.40;;;3.83;;
21095;SDS011;10706;49.036;12.112;2023-05-10T02:49:44;8.95;;;3.88;;
21095;SDS011;10706;49.036;12.112;2023-05-10T02:52:10;12.25;;;4.20;;
21095;SDS011;10706;49.036;12.112;2023-05-10T02:54:47;11.70;;;4.70;;
21095;SDS011;10706;49.036;12.112;2023-05-10T02:57:16;9.85;;;4.22;;
21095;SDS011;10706;49.036;12.112;2023-05-10T02:59:47;11.43;;;4.68;;
21095;SDS011;10706;49.036;12.112;2023-05-10T03:02:13;10.52;;;4.30;;
21095;SDS011;10706;49.036;12.112;2023-05-10T03:04:38;11.82;;;4.32;;
21095;SDS011;10706;49.036;12.112;2023-05-10T03:07:04;10.43;;;4.50;;
21095;SDS011;10706;49.036;12.112;2023-05-10T03:09:30;12.85;;;5.40;;
21095;SDS011;10706;49.036;12.112;2023-05-10T03:12:27;12.60;;;5.07;;
21095;SDS011;10706;49.036;12.112;2023-05-10T03:17:52;11.55;;;4.35;;
21095;SDS011;10706;49.036;12.112;2023-05-10T03:20:31;12.48;;;5.55;;
21095;SDS011;10706;49.036;12.112;2023-05-10T03:25:43;10.75;;;4.47;;
21095;SDS011;10706;49.036;12.112;2023-05-10T03:28:13;12.30;;;5.00;;
21095;SDS011;10706;49.036;12.112;2023-05-10T03:30:43;13.05;;;5.30;;
21095;SDS011;10706;49.036;12.112;2023-05-10T03:33:09;14.00;;;6.15;;
21095;SDS011;10706;49.036;12.112;2023-05-10T03:35:35;12.95;;;6.15;;
21095;SDS011;10706;49.036;12.112;2023-05-10T03:38:01;13.35;;;5.85;;
21095;SDS011;10706;49.036;12.112;2023-05-10T03:40:27;13.07;;;5.80;;
21095;SDS011;10706;49.036;12.112;2023-05-10T03:42:56;13.80;;;6.30;;
21095;SDS011;10706;49.036;12.112;2023-05-10T03:45:22;16.45;;;5.95;;
21095;SDS011;10706;49.036;12.112;2023-05-10T03:47:48;15.82;;;6.10;;
21095;SDS011;10706;49.036;12.112;2023-05-10T03:50:13;13.60;;;5.95;;
21095;SDS011;10706;49.036;12.112;2023-05-10T03:52:39;14.15;;;6.15;;
21095;SDS011;10706;49.036;12.112;2023-05-10T03:55:05;16.80;;;5.85;;
21095;SDS011;10706;49.036;12.112;2023-05-10T03:57:31;18.75;;;6.72;;
21095;SDS011;10706;49.036;12.112;2023-05-10T03:59:57;13.90;;;6.17;;
21095;SDS011;10706;49.036;12.112;2023-05-10T04:02:23;14.90;;;6.25;;
21095;SDS011;10706;49.036;12.112;2023-05-10T04:04:49;15.90;;;6.67;;
21095;SDS011;10706;49.036;12.112;2023-05-10T04:07:15;13.73;;;6.47;;
21095;SDS011;10706;49.036;12.112;2023-05-10T04:09:40;18.17;;;6.53;;
21095;SDS011;10706;49.036;12.112;2023-05-10T04:12:07;16.23;;;6.32;;
21095;SDS011;10706;49.036;12.112;2023-05-10T04:14:32;16.75;;;7.65;;
21095;SDS011;10706;49.036;12.112;2023-05-10T04:16:58;18.10;;;7.70;;
21095;SDS011;10706;49.036;12.112;2023-05-10T04:19:28;15.13;;;6.80;;
21095;SDS011;10706;49.036;12.112;2023-05-10T04:21:55;13.47;;;6.00;;
21095;SDS011;10706;49.036;12.112;2023-05-10T04:24:21;18.03;;;6.63;;
21095;SDS011;10706;49.036;12.112;2023-05-10T04:26:46;15.83;;;7.50;;
21095;SDS011;10706;49.036;12.112;2023-05-10T04:29:12;18.13;;;7.07;;
21095;SDS011;10706;49.036;12.112;2023-05-10T04:31:38;16.48;;;6.90;;
21095;SDS011;10706;49.036;12.112;2023-05-10T04:34:04;16.05;;;6.90;;
21095;SDS011;10706;49.036;12.112;2023-05-10T04:36:30;15.03;;;6.63;;
21095;SDS011;10706;49.036;12.112;2023-05-10T04:38:57;16.25;;;6.97;;
21095;SDS011;10706;49.036;12.112;2023-05-10T04:41:23;16.07;;;7.30;;
21095;SDS011;10706;49.036;12.112;2023-05-10T04:43:50;15.60;;;7.00;;
21095;SDS011;10706;49.036;12.112;2023-05-10T04:46:16;18.88;;;7.90;;
21095;SDS011;10706;49.036;12.112;2023-05-10T04:48:42;16.75;;;7.55;;
21095;SDS011;10706;49.036;12.112;2023-05-10T04:51:08;19.63;;;7.55;;
21095;SDS011;10706;49.036;12.112;2023-05-10T04:53:33;15.43;;;7.22;;
21095;SDS011;10706;49.036;12.112;2023-05-10T04:55:59;16.45;;;7.45;;
21095;SDS011;10706;49.036;12.112;2023-05-10T04:58:25;15.52;;;7.57;;
21095;SDS011;10706;49.036;12.112;2023-05-10T05:00:51;17.25;;;7.80;;
21095;SDS011;10706;49.036;12.112;2023-05-10T05:03:17;17.23;;;7.43;;
21095;SDS011;10706;49.036;12.112;2023-05-10T05:05:43;16.50;;;7.68;;
21095;SDS011;10706;49.036;12.112;2023-05-10T05:08:28;17.08;;;7.72;;
21095;SDS011;10706;49.036;12.112;2023-05-10T05:10:54;16.92;;;8.20;;
21095;SDS011;10706;49.036;12.112;2023-05-10T05:13:30;18.50;;;7.80;;
21095;SDS011;10706;49.036;12.112;2023-05-10T05:15:57;17.00;;;7.55;;
21095;SDS011;10706;49.036;12.112;2023-05-10T05:18:25;18.33;;;7.97;;
21095;SDS011;10706;49.036;12.112;2023-05-10T05:20:51;16.95;;;8.10;;
21095;SDS011;10706;49.036;12.112;2023-05-10T05:23:17;17.42;;;7.75;;
21095;SDS011;10706;49.036;12.112;2023-05-10T05:25:45;15.57;;;7.65;;
21095;SDS011;10706;49.036;12.112;2023-05-10T05:28:11;21.40;;;8.20;;
21095;SDS011;10706;49.036;12.112;2023-05-10T05:30:38;18.20;;;8.20;;
21095;SDS011;10706;49.036;12.112;2023-05-10T05:33:03;18.73;;;7.70;;
21095;SDS011;10706;49.036;12.112;2023-05-10T05:35:29;18.10;;;8.40;;
21095;SDS011;10706;49.036;12.112;2023-05-10T05:37:55;18.83;;;8.23;;
21095;SDS011;10706;49.036;12.112;2023-05-10T05:40:21;16.42;;;8.18;;
21095;SDS011;10706;49.036;12.112;2023-05-10T05:42:47;17.83;;;7.72;;
21095;SDS011;10706;49.036;12.112;2023-05-10T05:45:13;19.60;;;8.98;;
21095;SDS011;10706;49.036;12.112;2023-05-10T05:47:39;17.98;;;8.10;;
21095;SDS011;10706;49.036;12.112;2023-05-10T05:50:05;23.30;;;8.77;;
21095;SDS011;10706;49.036;12.112;2023-05-10T05:52:31;18.77;;;8.57;;
21095;SDS011;10706;49.036;12.112;2023-05-10T05:54:57;18.75;;;8.48;;
21095;SDS011;10706;49.036;12.112;2023-05-10T05:57:23;16.67;;;8.13;;
21095;SDS011;10706;49.036;12.112;2023-05-10T05:59:49;19.95;;;8.38;;
21095;SDS011;10706;49.036;12.112;2023-05-10T06:02:14;18.38;;;8.23;;
21095;SDS011;10706;49.036;12.112;2023-05-10T06:04:40;20.90;;;8.90;;
21095;SDS011;10706;49.036;12.112;2023-05-10T06:07:06;18.55;;;8.73;;
21095;SDS011;10706;49.036;12.112;2023-05-10T06:09:32;17.85;;;8.73;;
21095;SDS011;10706;49.036;12.112;2023-05-10T06:11:58;21.70;;;9.40;;
21095;SDS011;10706;49.036;12.112;2023-05-10T06:14:23;18.25;;;8.43;;
21095;SDS011;10706;49.036;12.112;2023-05-10T06:16:49;18.60;;;8.32;;
21095;SDS011;10706;49.036;12.112;2023-05-10T06:19:15;19.17;;;9.05;;
21095;SDS011;10706;49.036;12.112;2023-05-10T06:21:41;18.23;;;8.50;;
21095;SDS011;10706;49.036;12.112;2023-05-10T06:24:07;21.73;;;8.82;;
21095;SDS011;10706;49.036;12.112;2023-05-10T06:26:33;18.95;;;9.18;;
21095;SDS011;10706;49.036;12.112;2023-05-10T06:28:58;19.80;;;9.43;;
21095;SDS011;10706;49.036;12.112;2023-05-10T06:31:24;19.57;;;8.47;;
21095;SDS011;10706;49.036;12.112;2023-05-10T06:33:50;19.67;;;8.98;;
21095;SDS011;10706;49.036;12.112;2023-05-10T06:36:16;16.67;;;8.63;;
21095;SDS011;10706;49.036;12.112;2023-05-10T06:38:42;19.35;;;8.43;;
21095;SDS011;10706;49.036;12.112;2023-05-10T06:41:07;18.95;;;7.78;;
21095;SDS011;10706;49.036;12.112;2023-05-10T06:43:33;19.00;;;8.63;;
21095;SDS011;10706;49.036;12.112;2023-05-10T06:45:59;23.92;;;9.35;;
21095;SDS011;10706;49.036;12.112;2023-05-10T06:48:25;20.02;;;9.07;;
21095;SDS011;10706;49.036;12.112;2023-05-10T06:50:51;17.27;;;8.43;;
21095;SDS011;10706;49.036;12.112;2023-05-10T06:53:17;18.25;;;8.60;;
21095;SDS011;10706;49.036;12.112;2023-05-10T06:55:43;19.48;;;7.78;;
21095;SDS011;10706;49.036;12.112;2023-05-10T06:58:08;19.27;;;8.98;;
21095;SDS011;10706;49.036;12.112;2023-05-10T07:00:34;19.23;;;8.20;;
21095;SDS011;10706;49.036;12.112;2023-05-10T07:03:04;19.30;;;9.00;;
21095;SDS011;10706;49.036;12.112;2023-05-10T07:05:32;18.33;;;8.40;;
21095;SDS011;10706;49.036;12.112;2023-05-10T07:08:03;18.65;;;9.00;;
21095;SDS011;10706;49.036;12.112;2023-05-10T07:10:29;17.95;;;8.40;;
21095;SDS011;10706;49.036;12.112;2023-05-10T07:12:58;18.27;;;9.00;;
21095;SDS011;10706;49.036;12.112;2023-05-10T07:15:26;18.02;;;8.35;;
21095;SDS011;10706;49.036;12.112;2023-05-10T07:17:53;18.85;;;8.82;;
21095;SDS011;10706;49.036;12.112;2023-05-10T07:20:19;18.88;;;8.98;;
21095;SDS011;10706;49.036;12.112;2023-05-10T07:22:44;18.73;;;8.48;;
21095;SDS011;10706;49.036;12.112;2023-05-10T07:25:10;18.40;;;9.25;;
21095;SDS011;10706;49.036;12.112;2023-05-10T07:27:36;20.60;;;9.68;;
21095;SDS011;10706;49.036;12.112;2023-05-10T07:30:02;19.63;;;9.57;;
21095;SDS011;10706;49.036;12.112;2023-05-10T07:32:27;17.63;;;8.40;;
21095;SDS011;10706;49.036;12.112;2023-05-10T07:34:53;17.60;;;8.70;;
21095;SDS011;10706;49.036;12.112;2023-05-10T07:37:19;18.02;;;9.40;;
21095;SDS011;10706;49.036;12.112;2023-05-10T07:39:45;19.15;;;9.50;;
21095;SDS011;10706;49.036;12.112;2023-05-10T07:42:11;18.75;;;8.98;;
21095;SDS011;10706;49.036;12.112;2023-05-10T07:44:36;17.52;;;8.70;;
21095;SDS011;10706;49.036;12.112;2023-05-10T07:47:02;20.85;;;9.77;;
21095;SDS011;10706;49.036;12.112;2023-05-10T07:49:28;17.17;;;8.50;;
21095;SDS011;10706;49.036;12.112;2023-05-10T07:51:54;22.42;;;9.13;;
21095;SDS011;10706;49.036;12.112;2023-05-10T07:54:19;16.92;;;8.43;;
21095;SDS011;10706;49.036;12.112;2023-05-10T07:56:46;20.65;;;8.57;;
21095;SDS011;10706;49.036;12.112;2023-05-10T07:59:16;22.02;;;8.90;;
21095;SDS011;10706;49.036;12.112;2023-05-10T08:01:42;21.35;;;9.38;;
21095;SDS011;10706;49.036;12.112;2023-05-10T08:04:08;19.17;;;8.43;;
21095;SDS011;10706;49.036;12.112;2023-05-10T08:06:34;19.15;;;8.85;;
21095;SDS011;10706;49.036;12.112;2023-05-10T08:09:00;16.58;;;8.20;;
21095;SDS011;10706;49.036;12.112;2023-05-10T08:11:26;20.90;;;7.93;;
21095;SDS011;10706;49.036;12.112;2023-05-10T08:13:54;17.77;;;8.18;;
21095;SDS011;10706;49.036;12.112;2023-05-10T08:16:20;19.52;;;7.65;;
21095;SDS011;10706;49.036;12.112;2023-05-10T08:18:46;16.48;;;6.90;;
21095;SDS011;10706;49.036;12.112;2023-05-10T08:21:12;16.70;;;8.10;;
21095;SDS011;10706;49.036;12.112;2023-05-10T08:23:39;17.17;;;8.13;;
21095;SDS011;10706;49.036;12.112;2023-05-10T08:26:05;15.25;;;7.53;;
21095;SDS011;10706;49.036;12.112;2023-05-10T08:28:31;15.43;;;7.53;;
21095;SDS011;10706;49.036;12.112;2023-05-10T08:30:57;18.08;;;8.88;;
21095;SDS011;10706;49.036;12.112;2023-05-10T08:33:23;17.13;;;8.07;;
21095;SDS011;10706;49.036;12.112;2023-05-10T08:35:48;18.58;;;8.50;;
21095;SDS011;10706;49.036;12.112;2023-05-10T08:38:14;16.23;;;7.18;;
21095;SDS011;10706;49.036;12.112;2023-05-10T08:40:41;18.10;;;8.25;;
21095;SDS011;10706;49.036;12.112;2023-05-10T08:43:09;16.73;;;6.50;;
21095;SDS011;10706;49.036;12.112;2023-05-10T08:45:41;16.63;;;7.20;;
21095;SDS011;10706;49.036;12.112;2023-05-10T08:48:10;15.18;;;6.80;;
21095;SDS011;10706;49.036;12.112;2023-05-10T08:50:37;14.32;;;6.38;;
21095;SDS011;10706;49.036;12.112;2023-05-10T08:53:06;19.77;;;6.80;;
21095;SDS011;10706;49.036;12.112;2023-05-10T08:55:36;15.00;;;6.85;;
21095;SDS011;10706;49.036;12.112;2023-05-10T08:58:04;15.68;;;6.72;;
21095;SDS011;10706;49.036;12.112;2023-05-10T09:00:30;13.80;;;6.15;;
21095;SDS011;10706;49.036;12.112;2023-05-10T09:02:57;16.65;;;6.65;;
21095;SDS011;10706;49.036;12.112;2023-05-10T09:05:24;14.85;;;6.28;;
21095;SDS011;10706;49.036;12.112;2023-05-10T09:07:50;9.18;;;3.97;;
21095;SDS011;10706;49.036;12.112;2023-05-10T09:10:16;7.05;;;2.20;;
21095;SDS011;10706;49.036;12.112;2023-05-10T09:12:43;7.15;;;2.70;;
21095;SDS011;10706;49.036;12.112;2023-05-10T09:15:10;14.30;;;4.93;;
21095;SDS011;10706;49.036;12.112;2023-05-10T09:17:39;11.73;;;5.20;;
21095;SDS011;10706;49.036;12.112;2023-05-10T09:20:07;13.45;;;5.47;;
21095;SDS011;10706;49.036;12.112;2023-05-10T09:22:33;10.85;;;4.50;;
21095;SDS011;10706;49.036;12.112;2023-05-10T09:25:03;3.25;;;1.58;;
21095;SDS011;10706;49.036;12.112;2023-05-10T09:27:30;1.50;;;1.20;;
21095;SDS011;10706;49.036;12.112;2023-05-10T09:29:56;2.08;;;1.00;;
21095;SDS011;10706;49.036;12.112;2023-05-10T09:32:22;1.10;;;0.80;;
21095;SDS011;10706;49.036;12.112;2023-05-10T09:35:05;2.03;;;1.10;;
21095;SDS011;10706;49.036;12.112;2023-05-10T09:37:43;1.30;;;1.20;;
21095;SDS011;10706;49.036;12.112;2023-05-10T09:40:14;1.30;;;1.00;;
21095;SDS011;10706;49.036;12.112;2023-05-10T09:42:55;2.60;;;1.10;;
21095;SDS011;10706;49.036;12.112;2023-05-10T09:45:32;2.50;;;0.88;;
21095;SDS011;10706;49.036;12.112;2023-05-10T09:48:00;1.08;;;0.95;;
21095;SDS011;10706;49.036;12.112;2023-05-10T09:50:28;3.17;;;1.20;;
21095;SDS011;10706;49.036;12.112;2023-05-10T09:52:58;2.85;;;1.27;;
21095;SDS011;10706;49.036;12.112;2023-05-10T09:58:09;4.40;;;1.55;;
21095;SDS011;10706;49.036;12.112;2023-05-10T10:00:39;6.30;;;2.10;;
21095;SDS011;10706;49.036;12.112;2023-05-10T10:03:14;1.85;;;0.90;;
21095;SDS011;10706;49.036;12.112;2023-05-10T10:05:45;8.02;;;2.58;;
21095;SDS011;10706;49.036;12.112;2023-05-10T10:08:12;4.18;;;1.80;;
21095;SDS011;10706;49.036;12.112;2023-05-10T10:10:39;1.95;;;1.20;;
21095;SDS011;10706;49.036;12.112;2023-05-10T10:13:05;1.80;;;1.40;;
21095;SDS011;10706;49.036;12.112;2023-05-10T10:15:32;2.10;;;1.40;;
21095;SDS011;10706;49.036;12.112;2023-05-10T10:17:59;2.10;;;1.13;;
21095;SDS011;10706;49.036;12.112;2023-05-10T10:20:25;2.65;;;1.08;;
21095;SDS011;10706;49.036;12.112;2023-05-10T10:22:52;17.60;;;8.75;;
21095;SDS011;10706;49.036;12.112;2023-05-10T10:25:18;5.68;;;2.45;;
21095;SDS011;10706;49.036;12.112;2023-05-10T10:36:29;1.52;;;1.00;;
21095;SDS011;10706;49.036;12.112;2023-05-10T10:38:56;2.65;;;1.23;;
21095;SDS011;10706;49.036;12.112;2023-05-10T10:41:33;1.52;;;1.00;;
21095;SDS011;10706;49.036;12.112;2023-05-10T10:49:52;1.40;;;0.90;;
21095;SDS011;10706;49.036;12.112;2023-05-10T10:52:26;1.48;;;1.17;;
21095;SDS011;10706;49.036;12.112;2023-05-10T10:57:41;1.23;;;0.75;;
21095;SDS011;10706;49.036;12.112;2023-05-10T11:00:30;1.27;;;1.08;;
21095;SDS011;10706;49.036;12.112;2023-05-10T11:03:04;1.88;;;1.10;;
21095;SDS011;10706;49.036;12.112;2023-05-10T11:05:39;1.67;;;0.90;;
21095;SDS011;10706;49.036;12.112;2023-05-10T11:08:25;1.45;;;0.90;;
21095;SDS011;10706;49.036;12.112;2023-05-10T11:13:37;1.85;;;0.90;;
21095;SDS011;10706;49.036;12.112;2023-05-10T11:16:11;2.92;;;0.95;;
21095;SDS011;10706;49.036;12.112;2023-05-10T11:18:58;2.78;;;0.88;;
21095;SDS011;10706;49.036;12.112;2023-05-10T11:21:30;1.65;;;0.90;;
21095;SDS011;10706;49.036;12.112;2023-05-10T11:23:58;0.90;;;0.80;;
21095;SDS011;10706;49.036;12.112;2023-05-10T11:26:29;1.30;;;0.95;;
21095;SDS011;10706;49.036;12.112;2023-05-10T11:28:58;8.38;;;2.97;;
21095;SDS011;10706;49.036;12.112;2023-05-10T11:31:26;1.40;;;0.90;;
21095;SDS011;10706;49.036;12.112;2023-05-10T11:33:57;3.10;;;1.00;;
21095;SDS011;10706;49.036;12.112;2023-05-10T11:36:25;0.70;;;0.70;;
21095;SDS011;10706;49.036;12.112;2023-05-10T11:38:54;1.83;;;0.93;;
21095;SDS011;10706;49.036;12.112;2023-05-10T11:41:24;3.45;;;1.15;;
21095;SDS011;10706;49.036;12.112;2023-05-10T11:43:53;1.08;;;0.88;;
21095;SDS011;10706;49.036;12.112;2023-05-10T11:46:21;0.70;;;0.70;;
21095;SDS011;10706;49.036;12.112;2023-05-10T11:48:49;2.72;;;0.80;;
21095;SDS011;10706;49.036;12.112;2023-05-10T11:51:20;2.33;;;0.95;;
21095;SDS011;10706;49.036;12.112;2023-05-10T11:53:48;2.50;;;0.90;;
21095;SDS011;10706;49.036;12.112;2023-05-10T11:56:18;1.42;;;0.80;;
21095;SDS011;10706;49.036;12.112;2023-05-10T11:58:53;0.80;;;0.80;;
21095;SDS011;10706;49.036;12.112;2023-05-10T12:01:21;0.80;;;0.80;;
21095;SDS011;10706;49.036;12.112;2023-05-10T12:03:49;2.33;;;0.95;;
21095;SDS011;10706;49.036;12.112;2023-05-10T12:06:17;1.88;;;1.00;;
21095;SDS011;10706;49.036;12.112;2023-05-10T12:08:44;1.27;;;0.80;;
21095;SDS011;10706;49.036;12.112;2023-05-10T12:11:11;2.38;;;0.50;;
21095;SDS011;10706;49.036;12.112;2023-05-10T12:13:41;2.95;;;0.85;;
21095;SDS011;10706;49.036;12.112;2023-05-10T12:19:08;1.67;;;0.77;;
21095;SDS011;10706;49.036;12.112;2023-05-10T12:21:33;2.05;;;0.80;;
21095;SDS011;10706;49.036;12.112;2023-05-10T12:24:00;0.60;;;0.60;;
21095;SDS011;10706;49.036;12.112;2023-05-10T12:26:28;0.63;;;0.60;;
21095;SDS011;10706;49.036;12.112;2023-05-10T12:28:55;2.85;;;0.68;;
21095;SDS011;10706;49.036;12.112;2023-05-10T12:31:53;1.55;;;0.70;;
21095;SDS011;10706;49.036;12.112;2023-05-10T12:34:25;3.60;;;0.85;;
21095;SDS011;10706;49.036;12.112;2023-05-10T12:36:55;2.28;;;1.10;;
21095;SDS011;10706;49.036;12.112;2023-05-10T12:39:21;3.05;;;1.30;;
21095;SDS011;10706;49.036;12.112;2023-05-10T12:41:47;1.65;;;1.00;;
21095;SDS011;10706;49.036;12.112;2023-05-10T12:44:12;1.88;;;0.95;;
21095;SDS011;10706;49.036;12.112;2023-05-10T12:46:38;1.80;;;1.00;;
21095;SDS011;10706;49.036;12.112;2023-05-10T12:49:04;4.88;;;1.20;;
21095;SDS011;10706;49.036;12.112;2023-05-10T12:51:30;5.85;;;1.10;;
21095;SDS011;10706;49.036;12.112;2023-05-10T12:53:56;3.28;;;1.10;;
21095;SDS011;10706;49.036;12.112;2023-05-10T12:56:21;2.90;;;1.00;;
21095;SDS011;10706;49.036;12.112;2023-05-10T12:58:47;1.40;;;1.13;;
21095;SDS011;10706;49.036;12.112;2023-05-10T13:01:13;1.38;;;1.05;;
21095;SDS011;10706;49.036;12.112;2023-05-10T13:03:39;1.38;;;0.85;;
21095;SDS011;10706;49.036;12.112;2023-05-10T13:06:05;2.53;;;0.80;;
21095;SDS011;10706;49.036;12.112;2023-05-10T13:08:31;3.10;;;0.70;;
21095;SDS011;10706;49.036;12.112;2023-05-10T13:10:59;2.30;;;1.00;;
21095;SDS011;10706;49.036;12.112;2023-05-10T13:13:26;4.63;;;0.85;;
21095;SDS011;10706;49.036;12.112;2023-05-10T13:15:51;0.63;;;0.63;;
21095;SDS011;10706;49.036;12.112;2023-05-10T13:18:17;4.18;;;1.08;;
21095;SDS011;10706;49.036;12.112;2023-05-10T13:20:43;3.22;;;0.95;;
21095;SDS011;10706;49.036;12.112;2023-05-10T13:23:09;2.30;;;1.00;;
21095;SDS011;10706;49.036;12.112;2023-05-10T13:25:35;1.15;;;0.80;;
21095;SDS011;10706;49.036;12.112;2023-05-10T13:28:01;3.22;;;1.50;;
21095;SDS011;10706;49.036;12.112;2023-05-10T13:30:27;21.15;;;6.63;;
21095;SDS011;10706;49.036;12.112;2023-05-10T13:32:53;8.43;;;2.83;;
21095;SDS011;10706;49.036;12.112;2023-05-10T13:35:19;1.88;;;1.20;;
21095;SDS011;10706;49.036;12.112;2023-05-10T13:37:45;7.38;;;2.42;;
21095;SDS011;10706;49.036;12.112;2023-05-10T13:40:11;14.70;;;4.90;;
21095;SDS011;10706;49.036;12.112;2023-05-10T13:42:37;17.02;;;6.15;;
21095;SDS011;10706;49.036;12.112;2023-05-10T13:45:03;3.97;;;1.67;;
21095;SDS011;10706;49.036;12.112;2023-05-10T13:47:29;2.08;;;1.20;;
21095;SDS011;10706;49.036;12.112;2023-05-10T13:49:55;2.13;;;1.25;;
21095;SDS011;10706;49.036;12.112;2023-05-10T13:52:22;3.20;;;1.25;;
21095;SDS011;10706;49.036;12.112;2023-05-10T13:54:48;2.03;;;0.93;;
21095;SDS011;10706;49.036;12.112;2023-05-10T13:57:13;5.72;;;1.20;;
21095;SDS011;10706;49.036;12.112;2023-05-10T13:59:41;1.88;;;1.05;;
21095;SDS011;10706;49.036;12.112;2023-05-10T14:02:07;1.67;;;1.10;;
21095;SDS011;10706;49.036;12.112;2023-05-10T14:04:33;2.42;;;1.48;;
21095;SDS011;10706;49.036;12.112;2023-05-10T14:07:00;6.90;;;1.65;;
21095;SDS011;10706;49.036;12.112;2023-05-10T14:09:26;2.03;;;1.00;;
21095;SDS011;10706;49.036;12.112;2023-05-10T14:11:51;1.08;;;1.00;;
21095;SDS011;10706;49.036;12.112;2023-05-10T14:14:17;2.00;;;1.10;;
21095;SDS011;10706;49.036;12.112;2023-05-10T14:16:43;2.47;;;1.17;;
21095;SDS011;10706;49.036;12.112;2023-05-10T14:19:10;0.90;;;0.88;;
21095;SDS011;10706;49.036;12.112;2023-05-10T14:21:36;1.40;;;1.10;;
21095;SDS011;10706;49.036;12.112;2023-05-10T14:24:02;1.20;;;1.10;;
21095;SDS011;10706;49.036;12.112;2023-05-10T14:26:28;3.65;;;1.20;;
21095;SDS011;10706;49.036;12.112;2023-05-10T14:28:53;2.53;;;1.27;;
21095;SDS011;10706;49.036;12.112;2023-05-10T14:31:19;1.90;;;1.23;;
21095;SDS011;10706;49.036;12.112;2023-05-10T14:33:45;5.10;;;1.10;;
21095;SDS011;10706;49.036;12.112;2023-05-10T14:36:12;3.58;;;1.25;;
21095;SDS011;10706;49.036;12.112;2023-05-10T14:38:39;3.65;;;0.98;;
21095;SDS011;10706;49.036;12.112;2023-05-10T14:41:05;3.60;;;1.25;;
21095;SDS011;10706;49.036;12.112;2023-05-10T14:43:31;2.92;;;1.02;;
21095;SDS011;10706;49.036;12.112;2023-05-10T14:45:57;2.08;;;1.10;;
21095;SDS011;10706;49.036;12.112;2023-05-10T14:48:23;1.65;;;1.05;;
21095;SDS011;10706;49.036;12.112;2023-05-10T14:50:49;1.42;;;0.90;;
21095;SDS011;10706;49.036;12.112;2023-05-10T14:53:15;1.25;;;1.02;;
21095;SDS011;10706;49.036;12.112;2023-05-10T14:55:41;2.75;;;1.30;;
21095;SDS011;10706;49.036;12.112;2023-05-10T14:58:07;1.35;;;1.10;;
21095;SDS011;10706;49.036;12.112;2023-05-10T15:00:32;3.10;;;1.48;;
21095;SDS011;10706;49.036;12.112;2023-05-10T15:02:58;2.30;;;1.40;;
21095;SDS011;10706;49.036;12.112;2023-05-10T15:05:24;2.42;;;1.35;;
21095;SDS011;10706;49.036;12.112;2023-05-10T15:07:50;4.28;;;1.88;;
21095;SDS011;10706;49.036;12.112;2023-05-10T15:10:16;6.00;;;1.30;;
21095;SDS011;10706;49.036;12.112;2023-05-10T15:12:42;2.85;;;1.50;;
21095;SDS011;10706;49.036;12.112;2023-05-10T15:15:08;3.22;;;1.38;;